Aeroporto :
LOGIN :

Iscrizione | Disclaimer

   EN    FR    IT 

 










Sommario :    VFR   VFR Marginale   IFR   IFR Intensivo   IFR Molto Intensivo
Visibilità : 
Base nubi : 
>= 8 km
>= 3000ft
5 / 8 km
1000 / 3000 ft
1500m / 5 km
500 / 1000 ft
800 / 1500m
200 / 500 ft
< 800m
< 200 ft
Simboli :   Temporali  Nebbia  Neve Forte  Precipitazioni Forti  Vento > 20 kt
SIGMETs :   Varie  Temporali  Ghiacco  Turbolenza  Onda orograficha  Ceneri Vulcaniche






- Altitudine del aeroporto : 194 ft


EBCV - Chièvres

ULTIMO METAR :
  • 101325Z AUTO 33012KT 9999 BKN030/// 18/11 Q1017 BLU

METARs OBSOLETI :
  • 101255Z AUTO 34014KT 9999 FEW025/// BKN039/// BKN071/// 19/12 Q1016 BLU
  • 101225Z AUTO 32013KT 9999 BKN026/// 18/12 Q1016 BLU
  • 101155Z AUTO 32011KT 9999 SCT026/// BKN088/// 19/13 Q1016 BLU
  • 101125Z AUTO 31010KT 9999 SCT029/// BKN079/// 19/12 Q1015 BLU
  • 101055Z AUTO 32011KT 9999 FEW029/// SCT078/// BKN087/// 19/12 Q1015 BLU

TAF TAF EBCV
Valido dal 10 a 13 ore il 10 a 22 ore UTC


101141Z 1013/1022 33010KT 9999 FEW020 SCT060
BECMG 1013/1015 9999 SCT030
PROB30
TEMPO 1013/1015 33010G20KT 9000 -SHRA SCT022 BY EBWM



MetMap, La meteo Aeronautica in un colpo d'occhio ! - Copyright ORBIFLY Dicembre 2007 - Disclaimer

ORBIFLY MET'MAP TEAM :

Programmazione e sviluppo : Alexandra Zaïnal
Concezione : Baudouin d'Aumeries
Aiuto per la programmazione : Marc-Olivier Méhu
Supporto tecnico e logistico : Manuel Goepfert
Aiuto per la traduzione : Arnaldo La Scala

Contatto : metmap@orbifly.com




FONTI E CREDITI :

   NOAA